createdAt,value
2023-04-20T00:00:21.506Z,1016.47
2023-04-20T00:01:21.533Z,1016.47
2023-04-20T00:02:21.768Z,1016.45
2023-04-20T00:03:22.034Z,1016.47
2023-04-20T00:04:21.630Z,1016.48
2023-04-20T00:05:21.692Z,1016.50
2023-04-20T00:06:21.781Z,1016.48
2023-04-20T00:07:21.725Z,1016.50
2023-04-20T00:08:21.756Z,1016.50
2023-04-20T00:09:21.784Z,1016.53
2023-04-20T00:10:21.816Z,1016.51
2023-04-20T00:11:21.852Z,1016.53
2023-04-20T00:12:21.878Z,1016.55
2023-04-20T00:13:21.918Z,1016.52
2023-04-20T00:14:21.936Z,1016.47
2023-04-20T00:15:21.976Z,1016.37
2023-04-20T00:16:22.019Z,1016.37
2023-04-20T00:17:22.065Z,1016.37
2023-04-20T00:18:22.067Z,1016.41
2023-04-20T00:19:22.099Z,1016.42
2023-04-20T00:20:22.131Z,1016.35
2023-04-20T00:21:22.157Z,1016.33
2023-04-20T00:22:22.187Z,1016.35
2023-04-20T00:23:22.238Z,1016.35
2023-04-20T00:24:22.249Z,1016.42
2023-04-20T00:25:22.285Z,1016.43
2023-04-20T00:26:22.313Z,1016.46
2023-04-20T00:27:22.345Z,1016.47
2023-04-20T00:28:22.380Z,1016.45
2023-04-20T00:29:22.418Z,1016.49
2023-04-20T00:30:22.451Z,1016.45
2023-04-20T00:31:22.490Z,1016.46
2023-04-20T00:32:22.508Z,1016.45
2023-04-20T00:33:22.526Z,1016.45
2023-04-20T00:34:22.562Z,1016.41
2023-04-20T00:35:22.597Z,1016.44
2023-04-20T00:36:22.618Z,1016.43
2023-04-20T00:37:22.669Z,1016.42
2023-04-20T00:38:22.681Z,1016.40
2023-04-20T00:39:22.711Z,1016.40
2023-04-20T00:40:22.748Z,1016.39
2023-04-20T00:41:22.776Z,1016.38
2023-04-20T00:42:22.803Z,1016.38
2023-04-20T00:43:22.858Z,1016.37
2023-04-20T00:44:22.863Z,1016.35
2023-04-20T00:45:22.904Z,1016.41
2023-04-20T00:46:23.000Z,1016.38
2023-04-20T00:47:22.965Z,1016.36
2023-04-20T00:48:22.992Z,1016.38
2023-04-20T00:49:23.031Z,1016.37
2023-04-20T00:50:23.058Z,1016.32
2023-04-20T00:51:23.080Z,1016.35
2023-04-20T00:52:23.118Z,1016.35
2023-04-20T00:53:23.142Z,1016.33
2023-04-20T00:54:23.181Z,1016.32
2023-04-20T00:55:23.210Z,1016.34
2023-04-20T00:56:23.238Z,1016.31
2023-04-20T00:57:23.267Z,1016.29
2023-04-20T00:58:23.327Z,1016.26
2023-04-20T00:59:23.330Z,1016.26
2023-04-20T01:00:23.371Z,1016.28
2023-04-20T01:01:23.427Z,1016.31
2023-04-20T01:02:23.672Z,1016.30
2023-04-20T01:03:23.618Z,1016.33
2023-04-20T01:04:23.628Z,1016.33
2023-04-20T01:05:23.520Z,1016.31
2023-04-20T01:06:23.546Z,1016.30
2023-04-20T01:07:23.580Z,1016.31
2023-04-20T01:08:23.607Z,1016.29
2023-04-20T01:09:23.642Z,1016.29
2023-04-20T01:10:23.674Z,1016.32
2023-04-20T01:11:23.714Z,1016.29
2023-04-20T01:12:23.741Z,1016.32
2023-04-20T01:13:23.780Z,1016.30
2023-04-20T01:14:23.797Z,1016.32
2023-04-20T01:15:23.845Z,1016.32
2023-04-20T01:16:23.896Z,1016.30
2023-04-20T01:17:23.925Z,1016.26
2023-04-20T01:18:23.919Z,1016.29
2023-04-20T01:19:23.963Z,1016.29
2023-04-20T01:20:23.981Z,1016.22
2023-04-20T01:21:24.016Z,1016.25
2023-04-20T01:22:24.073Z,1016.23
2023-04-20T01:23:24.083Z,1016.24
2023-04-20T01:24:24.108Z,1016.23
2023-04-20T01:25:24.162Z,1016.26
2023-04-20T01:26:24.170Z,1016.25
2023-04-20T01:27:24.199Z,1016.26
2023-04-20T01:28:24.251Z,1016.25
2023-04-20T01:29:24.266Z,1016.22
2023-04-20T01:30:24.296Z,1016.20
2023-04-20T01:31:24.352Z,1016.23
2023-04-20T01:32:24.395Z,1016.21
2023-04-20T01:33:24.392Z,1016.22
2023-04-20T01:34:24.426Z,1016.22
2023-04-20T01:35:24.446Z,1016.22
2023-04-20T01:36:24.478Z,1016.22
2023-04-20T01:37:24.508Z,1016.21
2023-04-20T01:38:24.539Z,1016.19
2023-04-20T01:39:24.596Z,1016.20
2023-04-20T01:40:24.605Z,1016.21
2023-04-20T01:41:24.642Z,1016.19
2023-04-20T01:42:24.668Z,1016.21
2023-04-20T01:43:24.701Z,1016.20
2023-04-20T01:44:24.733Z,1016.18
2023-04-20T01:45:24.772Z,1016.19
2023-04-20T01:46:24.840Z,1016.15
2023-04-20T01:47:24.887Z,1016.17
2023-04-20T01:48:24.857Z,1016.16
2023-04-20T01:49:24.892Z,1016.14
2023-04-20T01:50:24.916Z,1016.12
2023-04-20T01:51:24.949Z,1016.12
2023-04-20T01:52:24.978Z,1016.09
2023-04-20T01:53:25.005Z,1016.10
2023-04-20T01:54:25.047Z,1016.06
2023-04-20T01:55:25.076Z,1016.07
2023-04-20T01:56:25.107Z,1016.07
2023-04-20T01:57:25.151Z,1016.06
2023-04-20T01:58:25.179Z,1016.04
2023-04-20T01:59:25.213Z,1016.03
2023-04-20T02:00:25.235Z,1016.02
2023-04-20T02:01:25.361Z,1016.01
2023-04-20T02:02:25.383Z,1016.04
2023-04-20T02:03:25.505Z,1016.01
2023-04-20T02:04:25.360Z,1016.06
2023-04-20T02:05:25.414Z,1016.01
2023-04-20T02:06:25.442Z,1016.06
2023-04-20T02:07:25.464Z,1016.05
2023-04-20T02:08:25.489Z,1016.05
2023-04-20T02:09:25.521Z,1016.06
2023-04-20T02:10:25.548Z,1016.07
2023-04-20T02:11:25.588Z,1016.05
2023-04-20T02:12:25.630Z,1016.05
2023-04-20T02:13:25.669Z,1016.02
2023-04-20T02:14:25.702Z,1016.08
2023-04-20T02:15:25.712Z,1016.09
2023-04-20T02:16:25.817Z,1016.07
2023-04-20T02:17:25.838Z,1016.08
2023-04-20T02:18:25.790Z,1016.09
2023-04-20T02:19:25.826Z,1016.08
2023-04-20T02:20:25.853Z,1016.08
2023-04-20T02:21:25.888Z,1016.13
2023-04-20T02:22:25.915Z,1016.11
2023-04-20T02:23:25.952Z,1016.17
2023-04-20T02:24:25.979Z,1016.19
2023-04-20T02:25:26.023Z,1016.20
2023-04-20T02:26:26.040Z,1016.18
2023-04-20T02:27:26.072Z,1016.19
2023-04-20T02:28:26.109Z,1016.21
2023-04-20T02:29:26.134Z,1016.25
2023-04-20T02:30:26.167Z,1016.26
2023-04-20T02:31:26.267Z,1016.24
2023-04-20T02:32:26.236Z,1016.23
2023-04-20T02:33:26.257Z,1016.23
2023-04-20T02:34:26.294Z,1016.25
2023-04-20T02:35:26.325Z,1016.18
2023-04-20T02:36:26.347Z,1016.14
2023-04-20T02:37:26.465Z,1016.20
2023-04-20T02:38:26.414Z,1016.16
2023-04-20T02:39:26.443Z,1016.14
2023-04-20T02:40:26.476Z,1016.15
2023-04-20T02:41:26.508Z,1016.13
2023-04-20T02:42:26.537Z,1016.14
2023-04-20T02:43:26.567Z,1016.15
2023-04-20T02:44:26.599Z,1016.14
2023-04-20T02:45:26.632Z,1016.12
2023-04-20T02:46:26.745Z,1016.09
2023-04-20T02:47:26.865Z,1016.10
2023-04-20T02:48:26.722Z,1016.07
2023-04-20T02:49:26.757Z,1016.08
2023-04-20T02:50:26.797Z,1016.06
2023-04-20T02:51:26.823Z,1016.04
2023-04-20T02:52:26.850Z,1016.03
2023-04-20T02:53:26.901Z,1016.07
2023-04-20T02:54:26.913Z,1016.09
2023-04-20T02:55:26.946Z,1016.15
2023-04-20T02:56:26.979Z,1016.15
2023-04-20T02:57:27.092Z,1016.09
2023-04-20T02:58:27.039Z,1016.14
2023-04-20T02:59:27.070Z,1016.13
2023-04-20T03:00:27.109Z,1016.11
2023-04-20T03:01:27.192Z,1016.09
2023-04-20T03:02:27.451Z,1016.11
2023-04-20T03:03:27.339Z,1016.09
2023-04-20T03:04:27.278Z,1016.10
2023-04-20T03:05:27.253Z,1016.16
2023-04-20T03:06:27.294Z,1016.14
2023-04-20T03:07:27.314Z,1016.13
2023-04-20T03:08:27.352Z,1016.16
2023-04-20T03:09:27.378Z,1016.13
2023-04-20T03:10:27.415Z,1016.12
2023-04-20T03:11:27.441Z,1016.14
2023-04-20T03:12:27.469Z,1016.15
2023-04-20T03:13:27.510Z,1016.19
2023-04-20T03:14:27.533Z,1016.18
2023-04-20T03:15:27.573Z,1016.20
2023-04-20T03:16:27.638Z,1016.21
2023-04-20T03:17:27.656Z,1016.20
2023-04-20T03:18:27.657Z,1016.18
2023-04-20T03:19:27.693Z,1016.18
2023-04-20T03:20:27.725Z,1016.15
2023-04-20T03:21:27.770Z,1016.14
2023-04-20T03:22:27.778Z,1016.14
2023-04-20T03:23:27.821Z,1016.13
2023-04-20T03:24:27.859Z,1016.16
2023-04-20T03:25:27.876Z,1016.18
2023-04-20T03:26:27.903Z,1016.17
2023-04-20T03:27:27.953Z,1016.21
2023-04-20T03:28:27.975Z,1016.17
2023-04-20T03:29:27.995Z,1016.19
2023-04-20T03:30:28.029Z,1016.21
2023-04-20T03:31:28.088Z,1016.23
2023-04-20T03:32:28.112Z,1016.20
2023-04-20T03:33:28.121Z,1016.26
2023-04-20T03:34:28.156Z,1016.24
2023-04-20T03:35:28.184Z,1016.26
2023-04-20T03:36:28.246Z,1016.26
2023-04-20T03:37:28.245Z,1016.28
2023-04-20T03:38:28.273Z,1016.32
2023-04-20T03:39:28.305Z,1016.31
2023-04-20T03:40:28.350Z,1016.28
2023-04-20T03:41:28.379Z,1016.32
2023-04-20T03:42:28.400Z,1016.31
2023-04-20T03:43:28.434Z,1016.35
2023-04-20T03:44:28.468Z,1016.29
2023-04-20T03:45:28.512Z,1016.35
2023-04-20T03:46:28.647Z,1016.29
2023-04-20T03:47:28.583Z,1016.26
2023-04-20T03:48:28.587Z,1016.27
2023-04-20T03:49:28.615Z,1016.21
2023-04-20T03:50:28.646Z,1016.24
2023-04-20T03:51:28.678Z,1016.23
2023-04-20T03:52:28.731Z,1016.22
2023-04-20T03:53:28.742Z,1016.25
2023-04-20T03:54:28.771Z,1016.23
2023-04-20T03:55:28.803Z,1016.22
2023-04-20T03:56:28.836Z,1016.27
2023-04-20T03:57:28.897Z,1016.28
2023-04-20T03:58:28.896Z,1016.29
2023-04-20T03:59:28.930Z,1016.25
2023-04-20T04:00:28.959Z,1016.29
2023-04-20T04:01:29.005Z,1016.31
2023-04-20T04:02:29.179Z,1016.33
2023-04-20T04:03:29.238Z,1016.33
2023-04-20T04:04:29.268Z,1016.29
2023-04-20T04:05:29.200Z,1016.32
2023-04-20T04:06:29.148Z,1016.31
2023-04-20T04:07:29.177Z,1016.32
2023-04-20T04:08:29.209Z,1016.31
2023-04-20T04:09:29.240Z,1016.34
2023-04-20T04:10:29.273Z,1016.32
2023-04-20T04:11:29.304Z,1016.35
2023-04-20T04:12:29.341Z,1016.34
2023-04-20T04:13:29.378Z,1016.31
2023-04-20T04:14:29.397Z,1016.33
2023-04-20T04:15:29.425Z,1016.32
2023-04-20T04:16:29.485Z,1016.29
2023-04-20T04:17:29.501Z,1016.32
2023-04-20T04:18:29.526Z,1016.35
2023-04-20T04:19:29.552Z,1016.37
2023-04-20T04:20:29.585Z,1016.37
2023-04-20T04:21:29.642Z,1016.37
2023-04-20T04:22:36.884Z,1016.37
2023-04-20T04:24:33.723Z,1016.42
2023-04-20T04:25:33.772Z,1016.39
2023-04-20T04:27:37.820Z,1016.47
2023-04-20T04:28:37.961Z,1016.49
2023-04-20T04:30:41.930Z,1016.48
2023-04-20T04:31:42.070Z,1016.47
2023-04-20T04:32:41.997Z,1016.44
2023-04-20T04:33:41.980Z,1016.49
2023-04-20T04:34:42.023Z,1016.46
2023-04-20T04:35:42.084Z,1016.47
2023-04-20T04:36:42.095Z,1016.49
2023-04-20T04:37:42.136Z,1016.46
2023-04-20T04:38:42.137Z,1016.46
2023-04-20T04:39:42.164Z,1016.45
2023-04-20T04:40:42.184Z,1016.47
2023-04-20T04:41:42.233Z,1016.49
2023-04-20T04:42:42.245Z,1016.54
2023-04-20T04:43:42.359Z,1016.54
2023-04-20T04:44:42.309Z,1016.51
2023-04-20T04:45:42.397Z,1016.54
2023-04-20T04:46:42.473Z,1016.53
2023-04-20T04:47:42.458Z,1016.50
2023-04-20T04:48:42.437Z,1016.51
2023-04-20T04:49:42.473Z,1016.49
2023-04-20T04:50:42.507Z,1016.52
2023-04-20T04:51:42.534Z,1016.51
2023-04-20T04:52:42.565Z,1016.53
2023-04-20T04:53:42.598Z,1016.54
2023-04-20T04:54:42.626Z,1016.62
2023-04-20T04:55:42.663Z,1016.61
2023-04-20T04:56:42.700Z,1016.60
2023-04-20T04:57:42.726Z,1016.61
2023-04-20T04:58:42.766Z,1016.63
2023-04-20T04:59:42.795Z,1016.61
2023-04-20T05:00:42.820Z,1016.62
2023-04-20T05:01:42.896Z,1016.63
2023-04-20T05:02:42.983Z,1016.58
2023-04-20T05:03:43.005Z,1016.60
2023-04-20T05:04:43.030Z,1016.63
2023-04-20T05:05:42.971Z,1016.65
2023-04-20T05:06:43.015Z,1016.65
2023-04-20T05:07:43.042Z,1016.65
2023-04-20T05:08:43.058Z,1016.68
2023-04-20T05:09:43.098Z,1016.63
2023-04-20T05:10:43.130Z,1016.60
2023-04-20T05:11:43.157Z,1016.58
2023-04-20T05:12:43.190Z,1016.56
2023-04-20T05:13:43.238Z,1016.54
2023-04-20T05:14:43.248Z,1016.55
2023-04-20T05:15:44.034Z,1016.54
2023-04-20T05:16:43.347Z,1016.47
2023-04-20T05:17:43.473Z,1016.53
2023-04-20T05:18:43.393Z,1016.52
2023-04-20T05:19:43.396Z,1016.54
2023-04-20T05:20:43.438Z,1016.58
2023-04-20T05:21:43.469Z,1016.59
2023-04-20T05:22:43.504Z,1016.62
2023-04-20T05:23:43.519Z,1016.69
2023-04-20T05:24:43.562Z,1016.73
2023-04-20T05:25:43.598Z,1016.75
2023-04-20T05:26:43.613Z,1016.76
2023-04-20T05:27:43.656Z,1016.78
2023-04-20T05:28:43.684Z,1016.73
2023-04-20T05:29:43.727Z,1016.72
2023-04-20T05:30:43.754Z,1016.68
2023-04-20T05:31:43.853Z,1016.63
2023-04-20T05:32:43.845Z,1016.64
2023-04-20T05:33:43.856Z,1016.66
2023-04-20T05:34:43.935Z,1016.57
2023-04-20T05:35:43.923Z,1016.60
2023-04-20T05:36:43.926Z,1016.64
2023-04-20T05:37:43.957Z,1016.66
2023-04-20T05:38:44.000Z,1016.58
2023-04-20T05:39:44.031Z,1016.63
2023-04-20T05:40:44.059Z,1016.64
2023-04-20T05:41:44.092Z,1016.71
2023-04-20T05:42:44.124Z,1016.72
2023-04-20T05:43:44.160Z,1016.73
2023-04-20T05:44:44.193Z,1016.75
2023-04-20T05:45:44.231Z,1016.72
2023-04-20T05:46:44.248Z,1016.75
2023-04-20T05:47:44.313Z,1016.76
2023-04-20T05:48:44.306Z,1016.78
2023-04-20T05:49:44.345Z,1016.84
2023-04-20T05:50:44.376Z,1016.91
2023-04-20T05:51:44.408Z,1016.96
2023-04-20T05:52:44.429Z,1016.99
2023-04-20T05:53:44.458Z,1017.00
2023-04-20T05:54:44.500Z,1017.03
2023-04-20T05:55:44.526Z,1016.99
2023-04-20T05:56:44.591Z,1016.96
2023-04-20T05:57:44.596Z,1016.92
2023-04-20T05:58:44.627Z,1016.89
2023-04-20T05:59:44.657Z,1016.87
2023-04-20T06:00:44.703Z,1016.92
2023-04-20T06:01:44.722Z,1016.94
2023-04-20T06:02:44.882Z,1016.97
2023-04-20T06:03:45.053Z,1016.95
2023-04-20T06:04:44.989Z,1016.95
2023-04-20T06:05:44.962Z,1016.94
2023-04-20T06:06:44.877Z,1016.89
2023-04-20T06:07:44.912Z,1016.86
2023-04-20T06:08:44.943Z,1016.85
2023-04-20T06:09:44.957Z,1016.88
2023-04-20T06:10:44.996Z,1016.84
2023-04-20T06:11:45.039Z,1016.88
2023-04-20T06:12:45.072Z,1016.89
2023-04-20T06:13:45.099Z,1016.94
2023-04-20T06:14:45.128Z,1016.97
2023-04-20T06:15:45.184Z,1016.99
2023-04-20T06:16:45.195Z,1017.00
2023-04-20T06:17:45.238Z,1017.04
2023-04-20T06:18:45.263Z,1017.00
2023-04-20T06:19:45.370Z,1017.01
2023-04-20T06:20:45.346Z,1017.00
2023-04-20T06:21:45.356Z,1016.99
2023-04-20T06:22:45.423Z,1016.97
2023-04-20T06:23:45.425Z,1017.03
2023-04-20T06:24:45.445Z,1017.04
2023-04-20T06:25:45.485Z,1017.08
2023-04-20T06:26:45.499Z,1017.09
2023-04-20T06:27:45.541Z,1017.14
2023-04-20T06:28:45.556Z,1017.13
2023-04-20T06:29:45.599Z,1017.16
2023-04-20T06:30:45.633Z,1017.19
2023-04-20T06:31:45.726Z,1017.15
2023-04-20T06:32:45.718Z,1017.18
2023-04-20T06:33:45.732Z,1017.19
2023-04-20T06:34:45.755Z,1017.19
2023-04-20T06:35:45.830Z,1017.17
2023-04-20T06:36:45.814Z,1017.19
2023-04-20T06:37:45.872Z,1017.22
2023-04-20T06:38:45.881Z,1017.18
2023-04-20T06:39:45.926Z,1017.23
2023-04-20T06:40:45.942Z,1017.21
2023-04-20T06:41:45.989Z,1017.20
2023-04-20T06:42:46.012Z,1017.22
2023-04-20T06:43:46.048Z,1017.20
2023-04-20T06:44:46.106Z,1017.23
2023-04-20T06:45:46.108Z,1017.18
2023-04-20T06:46:46.213Z,1017.19
2023-04-20T06:47:46.187Z,1017.13
2023-04-20T06:48:46.322Z,1017.13
2023-04-20T06:49:46.236Z,1017.13
2023-04-20T06:50:46.259Z,1017.12
2023-04-20T06:51:46.329Z,1017.11
2023-04-20T06:52:46.311Z,1017.12
2023-04-20T06:53:46.359Z,1017.14
2023-04-20T06:54:46.402Z,1017.21
2023-04-20T06:55:46.440Z,1017.19
2023-04-20T06:56:46.447Z,1017.18
2023-04-20T06:57:46.485Z,1017.20
2023-04-20T06:58:46.516Z,1017.21
2023-04-20T06:59:46.545Z,1017.20
2023-04-20T07:00:46.575Z,1017.23
2023-04-20T07:01:46.663Z,1017.16
2023-04-20T07:02:46.726Z,1017.16
2023-04-20T07:03:47.012Z,1017.09
2023-04-20T07:04:46.761Z,1017.10
2023-04-20T07:05:46.853Z,1017.08
2023-04-20T07:06:46.765Z,1017.08
2023-04-20T07:07:46.826Z,1017.06
2023-04-20T07:08:46.826Z,1017.06
2023-04-20T07:09:46.850Z,1017.05
2023-04-20T07:10:46.895Z,1017.02
2023-04-20T07:11:46.913Z,1017.03
2023-04-20T07:12:46.966Z,1017.00
2023-04-20T07:13:46.990Z,1016.93
2023-04-20T07:14:47.026Z,1016.94
2023-04-20T07:15:47.055Z,1016.97
2023-04-20T07:16:47.189Z,1017.03
2023-04-20T07:17:47.187Z,1017.10
2023-04-20T07:18:47.150Z,1017.13
2023-04-20T07:19:47.243Z,1017.17
2023-04-20T07:20:47.231Z,1017.21
2023-04-20T07:21:47.263Z,1017.22
2023-04-20T07:22:47.313Z,1017.25
2023-04-20T07:23:47.327Z,1017.19
2023-04-20T07:24:47.353Z,1017.20
2023-04-20T07:25:47.368Z,1017.23
2023-04-20T07:26:47.406Z,1017.23
2023-04-20T07:27:47.439Z,1017.26
2023-04-20T07:28:47.456Z,1017.23
2023-04-20T07:29:47.503Z,1017.25
2023-04-20T07:30:47.530Z,1017.30
2023-04-20T07:31:47.614Z,1017.30
2023-04-20T07:32:47.630Z,1017.31
2023-04-20T07:33:47.623Z,1017.34
2023-04-20T07:34:47.657Z,1017.34
2023-04-20T07:35:47.695Z,1017.34
2023-04-20T07:36:47.716Z,1017.36
2023-04-20T07:37:47.768Z,1017.37
2023-04-20T07:38:47.793Z,1017.34
2023-04-20T07:39:47.865Z,1017.34
2023-04-20T07:40:48.163Z,1017.32
2023-04-20T07:41:47.873Z,1017.36
2023-04-20T07:42:47.954Z,1017.37
2023-04-20T07:43:47.948Z,1017.36
2023-04-20T07:44:47.987Z,1017.37
2023-04-20T07:45:48.055Z,1017.35
2023-04-20T07:46:48.059Z,1017.37
2023-04-20T07:47:48.106Z,1017.37
2023-04-20T07:48:48.131Z,1017.39
2023-04-20T07:49:48.149Z,1017.39
2023-04-20T07:50:48.173Z,1017.41
2023-04-20T07:51:48.216Z,1017.44
2023-04-20T07:52:48.246Z,1017.45
2023-04-20T07:53:48.280Z,1017.43
2023-04-20T07:54:48.312Z,1017.43
2023-04-20T07:55:49.703Z,1017.46
2023-04-20T07:56:48.357Z,1017.41
2023-04-20T07:57:48.410Z,1017.44
2023-04-20T07:58:48.433Z,1017.45
2023-04-20T07:59:48.835Z,1017.46
2023-04-20T08:00:48.634Z,1017.49
2023-04-20T08:01:48.671Z,1017.47
2023-04-20T08:02:48.699Z,1017.51
2023-04-20T08:03:49.085Z,1017.53
2023-04-20T08:04:48.869Z,1017.54
2023-04-20T08:05:48.748Z,1017.57
2023-04-20T08:06:48.685Z,1017.61
2023-04-20T08:07:48.820Z,1017.56
2023-04-20T08:08:48.775Z,1017.61
2023-04-20T08:09:48.803Z,1017.57
2023-04-20T08:10:48.826Z,1017.59
2023-04-20T08:11:48.916Z,1017.58
2023-04-20T08:12:51.136Z,1017.62
2023-04-20T08:13:48.919Z,1017.58
2023-04-20T08:14:48.946Z,1017.55
2023-04-20T08:15:49.433Z,1017.56
2023-04-20T08:16:49.026Z,1017.53
2023-04-20T08:17:49.097Z,1017.54
2023-04-20T08:18:49.096Z,1017.55
2023-04-20T08:19:49.137Z,1017.54
2023-04-20T08:20:49.160Z,1017.54
2023-04-20T08:21:49.193Z,1017.50
2023-04-20T08:22:49.300Z,1017.46
2023-04-20T08:23:49.264Z,1017.51
2023-04-20T08:24:49.287Z,1017.50
2023-04-20T08:25:49.320Z,1017.53
2023-04-20T08:26:49.500Z,1017.54
2023-04-20T08:27:49.452Z,1017.54
2023-04-20T08:28:49.415Z,1017.56
2023-04-20T08:29:49.452Z,1017.54
2023-04-20T08:30:49.499Z,1017.57
2023-04-20T08:31:51.347Z,1017.55
2023-04-20T08:32:49.600Z,1017.57
2023-04-20T08:33:49.614Z,1017.59
2023-04-20T08:34:49.606Z,1017.59
2023-04-20T08:35:49.641Z,1017.58
2023-04-20T08:36:49.682Z,1017.58
2023-04-20T08:37:49.704Z,1017.57
2023-04-20T08:38:49.747Z,1017.63
2023-04-20T08:39:49.789Z,1017.62
2023-04-20T08:40:49.811Z,1017.64
2023-04-20T08:41:49.847Z,1017.65
2023-04-20T08:42:49.888Z,1017.67
2023-04-20T08:43:49.919Z,1017.65
2023-04-20T08:44:49.948Z,1017.66
2023-04-20T08:45:49.984Z,1017.62
2023-04-20T08:46:50.183Z,1017.64
2023-04-20T08:47:50.117Z,1017.62
2023-04-20T08:48:50.088Z,1017.65
2023-04-20T08:49:50.126Z,1017.66
2023-04-20T08:50:50.149Z,1017.68
2023-04-20T08:51:50.185Z,1017.67
2023-04-20T08:52:50.238Z,1017.70
2023-04-20T08:53:50.277Z,1017.72
2023-04-20T08:54:56.480Z,1017.73
2023-04-20T08:55:50.307Z,1017.73
2023-04-20T08:56:50.344Z,1017.74
2023-04-20T08:57:50.379Z,1017.72
2023-04-20T08:58:50.408Z,1017.71
2023-04-20T08:59:50.453Z,1017.70
2023-04-20T09:00:50.482Z,1017.74
2023-04-20T09:01:50.546Z,1017.72
2023-04-20T09:02:50.671Z,1017.68
2023-04-20T09:03:50.747Z,1017.69
2023-04-20T09:04:50.739Z,1017.67
2023-04-20T09:05:50.649Z,1017.69
2023-04-20T09:06:50.696Z,1017.70
2023-04-20T09:07:50.710Z,1017.72
2023-04-20T09:08:50.733Z,1017.74
2023-04-20T09:09:50.776Z,1017.77
2023-04-20T09:10:50.807Z,1017.78
2023-04-20T09:11:50.839Z,1017.73
2023-04-20T09:12:50.873Z,1017.77
2023-04-20T09:13:50.894Z,1017.80
2023-04-20T09:14:50.941Z,1017.76
2023-04-20T09:15:51.140Z,1017.78
2023-04-20T09:16:51.105Z,1017.73
2023-04-20T09:17:51.089Z,1017.68
2023-04-20T09:18:51.075Z,1017.68
2023-04-20T09:19:51.108Z,1017.66
2023-04-20T09:20:51.148Z,1017.74
2023-04-20T09:21:51.168Z,1017.70
2023-04-20T09:22:51.202Z,1017.74
2023-04-20T09:23:51.239Z,1017.69
2023-04-20T09:24:51.298Z,1017.68
2023-04-20T09:25:51.311Z,1017.71
2023-04-20T09:26:51.334Z,1017.72
2023-04-20T09:27:51.364Z,1017.71
2023-04-20T09:28:51.404Z,1017.64
2023-04-20T09:29:51.424Z,1017.64
2023-04-20T09:30:51.493Z,1017.64
2023-04-20T09:31:51.586Z,1017.66
2023-04-20T09:32:51.602Z,1017.65
2023-04-20T09:33:51.566Z,1017.59
2023-04-20T09:34:51.607Z,1017.59
2023-04-20T09:35:51.635Z,1017.58
2023-04-20T09:36:51.686Z,1017.60
2023-04-20T09:37:51.698Z,1017.56
2023-04-20T09:38:51.742Z,1017.58
2023-04-20T09:39:51.767Z,1017.54
2023-04-20T09:40:51.812Z,1017.51
2023-04-20T09:41:51.831Z,1017.54
2023-04-20T09:42:51.870Z,1017.56
2023-04-20T09:43:51.896Z,1017.53
2023-04-20T09:44:51.945Z,1017.58
2023-04-20T09:45:52.013Z,1017.61
2023-04-20T09:46:51.991Z,1017.60
2023-04-20T09:47:52.177Z,1017.60
2023-04-20T09:48:52.082Z,1017.62
2023-04-20T09:49:52.085Z,1017.64
2023-04-20T09:50:52.157Z,1017.61
2023-04-20T09:51:52.157Z,1017.60
2023-04-20T09:52:52.185Z,1017.61
2023-04-20T09:53:53.058Z,1017.63
2023-04-20T09:54:52.253Z,1017.62
2023-04-20T09:55:52.378Z,1017.62
2023-04-20T09:56:52.309Z,1017.60
2023-04-20T09:57:52.352Z,1017.62
2023-04-20T09:58:52.456Z,1017.60
2023-04-20T09:59:53.322Z,1017.59
2023-04-20T10:00:52.488Z,1017.55
2023-04-20T10:01:52.485Z,1017.49
2023-04-20T10:02:52.638Z,1017.47
2023-04-20T10:03:52.797Z,1017.50
2023-04-20T10:04:52.577Z,1017.51
2023-04-20T10:05:53.575Z,1017.48
2023-04-20T10:06:52.661Z,1017.46
2023-04-20T10:07:52.690Z,1017.46
2023-04-20T10:08:52.725Z,1017.47
2023-04-20T10:09:52.754Z,1017.47
2023-04-20T10:10:52.782Z,1017.45
2023-04-20T10:11:54.630Z,1017.44
2023-04-20T10:12:52.847Z,1017.41
2023-04-20T10:13:52.881Z,1017.45
2023-04-20T10:14:52.913Z,1017.39
2023-04-20T10:15:52.956Z,1017.40
2023-04-20T10:16:53.049Z,1017.37
2023-04-20T10:17:53.064Z,1017.40
2023-04-20T10:18:53.105Z,1017.39
2023-04-20T10:19:53.082Z,1017.43
2023-04-20T10:20:53.115Z,1017.40
2023-04-20T10:21:53.144Z,1017.42
2023-04-20T10:23:00.309Z,1017.38
2023-04-20T10:24:57.192Z,1017.32
2023-04-20T10:25:57.230Z,1017.35
2023-04-20T10:28:01.281Z,1017.34
2023-04-20T10:29:01.305Z,1017.30
2023-04-20T10:31:05.429Z,1017.33
2023-04-20T10:32:05.397Z,1017.38
2023-04-20T10:33:58.416Z,1017.38
2023-04-20T10:34:58.623Z,1017.32
2023-04-20T10:37:02.455Z,1017.30
2023-04-20T10:38:02.491Z,1017.28
2023-04-20T10:39:55.586Z,1017.24
2023-04-20T10:40:55.571Z,1017.24
2023-04-20T10:42:48.660Z,1017.25
2023-04-20T10:43:48.533Z,1017.19
2023-04-20T10:45:52.670Z,1017.22
2023-04-20T10:46:52.907Z,1017.22
2023-04-20T10:48:45.774Z,1017.21
2023-04-20T10:49:45.811Z,1017.18
2023-04-20T10:51:39.020Z,1017.12
2023-04-20T10:52:38.991Z,1017.12
2023-04-20T10:54:32.172Z,1017.17
2023-04-20T10:55:32.203Z,1017.15
2023-04-20T10:57:36.269Z,1017.06
2023-04-20T10:58:36.299Z,1017.15
2023-04-20T11:00:40.354Z,1017.16
2023-04-20T11:01:40.395Z,1017.13
2023-04-20T11:03:33.483Z,1017.10
2023-04-20T11:04:33.425Z,1017.11
2023-04-20T11:06:37.455Z,1017.04
2023-04-20T11:07:37.493Z,1017.07
2023-04-20T11:09:41.574Z,1017.05
2023-04-20T11:10:41.564Z,1017.07
2023-04-20T11:12:34.765Z,1017.03
2023-04-20T11:13:34.759Z,1017.07
2023-04-20T11:14:34.822Z,1017.06
2023-04-20T11:15:34.833Z,1017.05
2023-04-20T11:16:47.495Z,1017.03
2023-04-20T11:17:34.976Z,1017.03
2023-04-20T11:18:34.933Z,1017.03
2023-04-20T11:19:34.975Z,1017.04
2023-04-20T11:20:35.004Z,1016.98
2023-04-20T11:21:35.040Z,1016.96
2023-04-20T11:22:35.077Z,1016.94
2023-04-20T11:23:35.115Z,1016.95
2023-04-20T11:24:35.144Z,1016.94
2023-04-20T11:25:35.178Z,1016.95
2023-04-20T11:26:35.218Z,1016.94
2023-04-20T11:27:35.255Z,1016.95
2023-04-20T11:28:35.285Z,1016.92
2023-04-20T11:29:35.322Z,1016.91
2023-04-20T11:30:35.362Z,1016.93
2023-04-20T11:31:35.533Z,1016.97
2023-04-20T11:32:35.578Z,1016.96
2023-04-20T11:33:35.486Z,1016.95
2023-04-20T11:34:35.499Z,1016.97
2023-04-20T11:35:35.542Z,1017.01
2023-04-20T11:36:35.571Z,1016.99
2023-04-20T11:37:35.612Z,1016.99
2023-04-20T11:38:35.648Z,1016.97
2023-04-20T11:39:35.695Z,1016.98
2023-04-20T11:40:35.718Z,1016.96
2023-04-20T11:41:35.754Z,1016.93
2023-04-20T11:42:35.789Z,1016.94
2023-04-20T11:43:35.822Z,1016.95
2023-04-20T11:44:35.856Z,1016.95
2023-04-20T11:45:36.562Z,1016.88
2023-04-20T11:46:35.964Z,1016.96
2023-04-20T11:47:35.996Z,1016.95
2023-04-20T11:48:36.003Z,1016.92
2023-04-20T11:49:36.040Z,1016.91
2023-04-20T11:50:36.072Z,1016.89
2023-04-20T11:51:36.108Z,1016.87
2023-04-20T11:52:36.144Z,1016.86
2023-04-20T11:53:36.181Z,1016.86
2023-04-20T11:54:36.212Z,1016.86
2023-04-20T11:55:36.298Z,1016.88
2023-04-20T11:56:36.317Z,1016.83
2023-04-20T11:57:36.322Z,1016.80
2023-04-20T11:58:36.356Z,1016.85
2023-04-20T11:59:36.395Z,1016.81
2023-04-20T12:00:36.434Z,1016.87
2023-04-20T12:01:36.499Z,1016.84
2023-04-20T12:02:36.576Z,1016.80
2023-04-20T12:03:36.704Z,1016.77
2023-04-20T12:04:36.950Z,1016.77
2023-04-20T12:05:36.710Z,1016.77
2023-04-20T12:06:36.645Z,1016.74
2023-04-20T12:07:36.696Z,1016.74
2023-04-20T12:08:36.728Z,1016.72
2023-04-20T12:09:36.752Z,1016.71
2023-04-20T12:10:36.785Z,1016.73
2023-04-20T12:11:36.842Z,1016.72
2023-04-20T12:12:36.858Z,1016.74
2023-04-20T12:13:36.913Z,1016.70
2023-04-20T12:14:36.946Z,1016.69
2023-04-20T12:15:36.995Z,1016.68
2023-04-20T12:16:37.034Z,1016.67
2023-04-20T12:17:37.122Z,1016.61
2023-04-20T12:18:37.089Z,1016.66
2023-04-20T12:19:37.108Z,1016.62
2023-04-20T12:20:37.149Z,1016.62
2023-04-20T12:21:37.177Z,1016.59
2023-04-20T12:22:37.233Z,1016.60
2023-04-20T12:23:37.282Z,1016.60
2023-04-20T12:24:37.289Z,1016.60
2023-04-20T12:25:37.349Z,1016.61